createdAt,value
2022-08-19T00:02:15.856Z,100425.84
2022-08-19T00:04:42.932Z,100425.44
2022-08-19T00:07:10.546Z,100417.38
2022-08-19T00:09:37.771Z,100411.75
2022-08-19T00:12:06.483Z,100409.34
2022-08-19T00:14:33.913Z,100409.34
2022-08-19T00:17:04.056Z,100404.91
2022-08-19T00:19:32.236Z,100408.97
2022-08-19T00:22:00.209Z,100418.63
2022-08-19T00:24:28.334Z,100414.19
2022-08-19T00:26:57.756Z,100404.53
2022-08-19T00:29:44.946Z,100402.53
2022-08-19T00:32:13.203Z,100398.47
2022-08-19T00:34:41.073Z,100389.59
2022-08-19T00:37:08.316Z,100390.00
2022-08-19T00:39:35.603Z,100386.78
2022-08-19T00:42:03.281Z,100382.38
2022-08-19T00:44:31.517Z,100367.88
2022-08-19T00:47:01.155Z,100377.53
2022-08-19T00:49:42.547Z,100377.94
2022-08-19T00:52:24.466Z,100389.22
2022-08-19T00:54:54.423Z,100385.16
2022-08-19T00:57:37.321Z,100375.53
2022-08-19T01:00:15.840Z,100366.66
2022-08-19T01:02:44.410Z,100377.13
2022-08-19T01:05:24.170Z,100369.47
2022-08-19T01:07:52.756Z,100369.88
2022-08-19T01:10:33.623Z,100372.28
2022-08-19T01:13:06.213Z,100394.84
2022-08-19T01:15:57.507Z,100409.69
2022-08-19T01:18:30.002Z,100418.94
2022-08-19T01:21:10.342Z,100409.31
2022-08-19T01:23:46.150Z,100406.84
2022-08-19T01:26:26.069Z,100398.34
2022-08-19T01:29:01.090Z,100393.16
2022-08-19T01:31:33.509Z,100385.47
2022-08-19T01:34:03.511Z,100379.84
2022-08-19T01:36:48.401Z,100381.44
2022-08-19T01:39:26.667Z,100391.47
2022-08-19T01:41:55.483Z,100387.84
2022-08-19T01:44:25.160Z,100382.25
2022-08-19T01:46:53.215Z,100383.00
2022-08-19T01:49:26.250Z,100386.22
2022-08-19T01:51:54.937Z,100403.56
2022-08-19T01:54:27.589Z,100421.59
2022-08-19T01:57:09.522Z,100416.75
2022-08-19T01:59:37.589Z,100402.31
2022-08-19T02:02:09.526Z,100397.09
2022-08-19T02:04:39.207Z,100384.59
2022-08-19T02:07:09.276Z,100351.59
2022-08-19T02:09:37.124Z,100349.19
2022-08-19T02:12:07.638Z,100345.16
2022-08-19T02:14:37.542Z,100345.97
2022-08-19T02:17:05.484Z,100333.06
2022-08-19T02:19:33.664Z,100321.81
2022-08-19T02:22:01.863Z,100318.59
2022-08-19T02:24:29.674Z,100305.75
2022-08-19T02:26:57.010Z,100298.50
2022-08-19T02:29:24.241Z,100296.88
2022-08-19T02:31:51.555Z,100292.06
2022-08-19T02:34:18.963Z,100290.84
2022-08-19T02:36:46.277Z,100292.06
2022-08-19T02:39:20.074Z,100289.69
2022-08-19T02:41:47.191Z,100288.03
2022-08-19T02:44:29.512Z,100296.47
2022-08-19T02:46:58.629Z,100298.88
2022-08-19T02:49:25.778Z,100298.09
2022-08-19T02:51:52.982Z,100319.81
2022-08-19T02:54:20.344Z,100331.88
2022-08-19T02:56:47.697Z,100324.63
2022-08-19T02:59:14.967Z,100313.75
2022-08-19T03:01:43.418Z,100319.38
2022-08-19T03:04:16.694Z,100306.50
2022-08-19T03:06:48.256Z,100318.56
2022-08-19T03:09:17.236Z,100323.78
2022-08-19T03:11:44.573Z,100322.97
2022-08-19T03:14:13.905Z,100320.97
2022-08-19T03:16:53.197Z,100313.72
2022-08-19T03:19:22.517Z,100310.88
2022-08-19T03:21:52.450Z,100318.56
2022-08-19T03:24:21.654Z,100314.94
2022-08-19T03:26:58.715Z,100317.31
2022-08-19T03:29:32.056Z,100326.59
2022-08-19T03:32:07.663Z,100310.13
2022-08-19T03:34:54.317Z,100310.13
2022-08-19T03:37:21.874Z,100306.09
2022-08-19T03:39:49.033Z,100292.81
2022-08-19T03:42:32.205Z,100297.22
2022-08-19T03:45:08.269Z,100299.63
2022-08-19T03:47:35.376Z,100304.44
2022-08-19T03:50:03.247Z,100303.63
2022-08-19T03:52:30.220Z,100286.75
2022-08-19T03:54:57.418Z,100296.41
2022-08-19T03:57:31.846Z,100294.38
2022-08-19T04:00:12.697Z,100294.41
2022-08-19T04:02:42.369Z,100307.69
2022-08-19T04:05:09.985Z,100310.91
2022-08-19T04:07:37.023Z,100312.91
2022-08-19T04:10:05.775Z,100333.81
2022-08-19T04:12:33.474Z,100333.00
2022-08-19T04:15:00.702Z,100333.00
2022-08-19T04:17:27.787Z,100326.59
2022-08-19T04:19:54.894Z,100326.59
2022-08-19T04:22:21.964Z,100340.25
2022-08-19T04:24:49.113Z,100339.84
2022-08-19T04:27:17.593Z,100347.53
2022-08-19T04:29:44.670Z,100341.06
2022-08-19T04:32:12.004Z,100332.66
2022-08-19T04:35:01.253Z,100326.63
2022-08-19T04:37:34.697Z,100331.47
2022-08-19T04:40:23.345Z,100318.59
2022-08-19T04:42:50.512Z,100314.19
2022-08-19T04:45:17.833Z,100323.88
2022-08-19T04:47:49.200Z,100335.16
2022-08-19T04:50:27.438Z,100330.34
2022-08-19T04:52:56.617Z,100328.75
2022-08-19T04:55:26.739Z,100328.75
2022-08-19T04:57:56.161Z,100326.38
2022-08-19T05:00:24.546Z,100321.13
2022-08-19T05:02:52.013Z,100321.19
2022-08-19T05:05:20.897Z,100310.31
2022-08-19T05:07:48.939Z,100317.53
2022-08-19T05:10:16.147Z,100301.84
2022-08-19T05:12:43.229Z,100310.31
2022-08-19T05:15:11.012Z,100296.63
2022-08-19T05:17:39.230Z,100292.22
2022-08-19T05:20:40.473Z,100295.00
2022-08-19T05:23:12.908Z,100291.78
2022-08-19T05:25:47.755Z,100299.00
2022-08-19T05:28:14.838Z,100296.59
2022-08-19T05:30:47.187Z,100303.41
2022-08-19T05:33:15.322Z,100299.41
2022-08-19T05:35:42.630Z,100302.19
2022-08-19T05:38:10.017Z,100297.78
2022-08-19T05:40:39.145Z,100299.00
2022-08-19T05:43:09.241Z,100302.63
2022-08-19T05:45:43.213Z,100312.31
2022-08-19T05:48:13.484Z,100312.31
2022-08-19T05:50:42.928Z,100318.34
2022-08-19T05:53:10.131Z,100322.34
2022-08-19T05:55:39.546Z,100321.13
2022-08-19T05:58:08.723Z,100328.00
2022-08-19T06:00:38.399Z,100332.03
2022-08-19T06:03:12.685Z,100332.81
2022-08-19T06:05:49.445Z,100325.94
2022-08-19T06:08:20.738Z,100329.19
2022-08-19T06:11:18.324Z,100320.31
2022-08-19T06:13:51.573Z,100315.53
2022-08-19T06:16:23.508Z,100315.50
2022-08-19T06:18:54.357Z,100312.69
2022-08-19T06:21:29.738Z,100325.59
2022-08-19T06:23:58.561Z,100320.31
2022-08-19T06:26:26.043Z,100319.50
2022-08-19T06:28:53.694Z,100327.56
2022-08-19T06:31:28.009Z,100332.38
2022-08-19T06:33:55.537Z,100342.81
2022-08-19T06:36:32.596Z,100342.78
2022-08-19T06:39:04.802Z,100362.97
2022-08-19T06:41:36.389Z,100368.63
2022-08-19T06:44:07.221Z,100366.59
2022-08-19T06:46:43.174Z,100374.28
2022-08-19T06:49:15.088Z,100372.66
2022-08-19T06:51:50.002Z,100370.63
2022-08-19T06:54:20.625Z,100371.41
2022-08-19T06:56:48.304Z,100365.72
2022-08-19T06:59:28.255Z,100365.66
2022-08-19T07:01:59.829Z,100366.44
2022-08-19T07:04:33.492Z,100361.16
2022-08-19T07:07:20.173Z,100359.09
2022-08-19T07:09:55.361Z,100350.56
2022-08-19T07:12:33.962Z,100353.00
2022-08-19T07:15:10.490Z,100369.94
2022-08-19T07:17:40.318Z,100374.03
2022-08-19T07:20:11.974Z,100373.56
2022-08-19T07:22:41.194Z,100382.84
2022-08-19T07:25:11.147Z,100387.63
2022-08-19T07:27:39.826Z,100395.25
2022-08-19T07:30:12.249Z,100392.44
2022-08-19T07:32:41.297Z,100394.84
2022-08-19T07:35:10.501Z,100389.91
2022-08-19T07:37:39.351Z,100389.84
2022-08-19T07:40:09.175Z,100396.66
2022-08-19T07:42:36.530Z,100392.97
2022-08-19T07:45:07.013Z,100397.78
2022-08-19T07:47:49.678Z,100406.16
2022-08-19T07:50:21.083Z,100406.25
2022-08-19T07:52:50.743Z,100400.97
2022-08-19T07:55:42.683Z,100403.78
2022-08-19T07:58:17.591Z,100413.84
2022-08-19T08:00:49.211Z,100422.31
2022-08-19T08:03:21.830Z,100415.81
2022-08-19T08:06:07.683Z,100420.25
2022-08-19T08:08:53.385Z,100427.19
2022-08-19T08:11:24.050Z,100430.50
2022-08-19T08:14:00.319Z,100432.50
2022-08-19T08:16:32.996Z,100439.00
2022-08-19T08:19:01.999Z,100442.63
2022-08-19T08:21:29.253Z,100444.72
2022-08-19T08:23:56.929Z,100436.19
2022-08-19T08:26:26.076Z,100445.47
2022-08-19T08:28:54.914Z,100438.22
2022-08-19T08:31:22.012Z,100439.00
2022-08-19T08:33:49.492Z,100443.88
2022-08-19T08:36:18.190Z,100445.44
2022-08-19T08:38:47.256Z,100441.44
2022-08-19T08:41:43.338Z,100443.78
2022-08-19T08:44:23.542Z,100449.84
2022-08-19T08:47:05.567Z,100446.53
2022-08-19T08:50:02.284Z,100449.81
2022-08-19T08:52:43.628Z,100453.84
2022-08-19T08:55:28.763Z,100444.66
2022-08-19T08:59:00.798Z,100445.53
2022-08-19T09:01:30.146Z,100456.44
2022-08-19T09:04:02.704Z,100447.13
2022-08-19T09:07:35.092Z,100447.09
2022-08-19T09:10:45.205Z,100452.28
2022-08-19T09:13:27.206Z,100453.84
2022-08-19T09:16:14.024Z,100450.22
2022-08-19T09:18:58.860Z,100446.28
2022-08-19T09:21:33.068Z,100449.16
2022-08-19T09:24:00.794Z,100440.31
2022-08-19T09:26:47.684Z,100441.09
2022-08-19T09:29:22.650Z,100437.88
2022-08-19T09:31:51.119Z,100444.28
2022-08-19T09:34:22.209Z,100426.69
2022-08-19T09:36:54.843Z,100434.25
2022-08-19T09:39:23.043Z,100436.16
2022-08-19T09:41:51.051Z,100442.53
2022-08-19T09:44:21.355Z,100436.56
2022-08-19T09:46:49.442Z,100434.25
2022-08-19T09:49:20.146Z,100435.41
2022-08-19T09:51:55.501Z,100434.91
2022-08-19T09:54:25.231Z,100434.13
2022-08-19T09:56:55.491Z,100429.31
2022-08-19T09:59:23.548Z,100429.44
2022-08-19T10:01:52.852Z,100429.91
2022-08-19T10:04:22.621Z,100433.13
2022-08-19T10:06:53.666Z,100431.81
2022-08-19T10:09:26.357Z,100429.72
2022-08-19T10:12:06.873Z,100428.06
2022-08-19T10:14:38.759Z,100429.09
2022-08-19T10:17:17.706Z,100422.59
2022-08-19T10:19:56.007Z,100432.31
2022-08-19T10:22:25.596Z,100437.19
2022-08-19T10:24:54.194Z,100443.38
2022-08-19T10:27:21.743Z,100438.00
2022-08-19T10:29:49.048Z,100450.78
2022-08-19T10:32:16.604Z,100448.34
2022-08-19T10:34:48.375Z,100439.59
2022-08-19T10:37:23.821Z,100446.47
2022-08-19T10:39:56.533Z,100436.72
2022-08-19T10:42:24.185Z,100439.16
2022-08-19T10:44:52.023Z,100436.78
2022-08-19T10:47:25.512Z,100433.19
2022-08-19T10:50:15.787Z,100442.50
2022-08-19T10:52:50.834Z,100434.00
2022-08-19T10:55:43.388Z,100433.13
2022-08-19T10:58:24.767Z,100439.94
2022-08-19T11:01:00.689Z,100441.97
2022-08-19T11:03:31.714Z,100441.28
2022-08-19T11:06:09.332Z,100452.19
2022-08-19T11:08:41.840Z,100441.72
2022-08-19T11:11:10.182Z,100440.88
2022-08-19T11:13:43.762Z,100452.19
2022-08-19T11:16:23.998Z,100450.16
2022-08-19T11:19:02.178Z,100454.22
2022-08-19T11:21:35.865Z,100451.78
2022-08-19T11:24:12.994Z,100452.97
2022-08-19T11:26:44.380Z,100451.78
2022-08-19T11:29:14.413Z,100449.34
2022-08-19T11:31:49.080Z,100451.31
2022-08-19T11:34:26.292Z,100445.72
2022-08-19T11:37:00.577Z,100451.72
2022-08-19T11:39:33.384Z,100453.69
2022-08-19T11:42:25.629Z,100458.16
2022-08-19T11:44:53.793Z,100461.38
2022-08-19T11:47:21.311Z,100458.94
2022-08-19T11:49:49.043Z,100471.03
2022-08-19T11:52:16.109Z,100474.25
2022-08-19T11:54:43.150Z,100481.53
2022-08-19T11:57:10.224Z,100474.66
2022-08-19T11:59:37.324Z,100479.06
2022-08-19T12:02:04.600Z,100482.28
2022-08-19T12:04:31.632Z,100477.44
2022-08-19T12:06:58.720Z,100477.41
2022-08-19T12:09:25.917Z,100483.06
2022-08-19T12:11:58.092Z,100480.63
2022-08-19T12:14:25.210Z,100480.63
2022-08-19T12:16:52.619Z,100485.88
2022-08-19T12:19:22.268Z,100487.81
2022-08-19T12:21:54.114Z,100490.25
2022-08-19T12:24:24.322Z,100495.47
2022-08-19T12:26:53.247Z,100487.63
2022-08-19T12:29:24.000Z,100496.47
2022-08-19T12:31:52.590Z,100496.13
2022-08-19T12:34:21.203Z,100504.28
2022-08-19T12:36:50.518Z,100498.25
2022-08-19T12:39:17.895Z,100490.94
2022-08-19T12:41:54.523Z,100491.34
2022-08-19T12:44:28.919Z,100488.47
2022-08-19T12:46:58.186Z,100491.63
2022-08-19T12:49:52.077Z,100482.72
2022-08-19T12:52:17.021Z,100477.72
2022-08-19T12:54:54.631Z,100483.78
2022-08-19T12:57:32.592Z,100486.59
2022-08-19T13:00:18.069Z,100489.06
2022-08-19T13:02:51.535Z,100509.28
2022-08-19T13:05:34.479Z,100513.38
2022-08-19T13:08:02.697Z,100522.78
2022-08-19T13:10:36.274Z,100509.94
2022-08-19T13:13:10.784Z,100515.69
2022-08-19T13:15:43.843Z,100516.53
2022-08-19T13:18:13.591Z,100518.91
2022-08-19T13:20:41.881Z,100511.97
2022-08-19T13:23:11.313Z,100509.53
2022-08-19T13:25:38.424Z,100502.44
2022-08-19T13:28:07.618Z,100509.75
2022-08-19T13:30:53.590Z,100503.50
2022-08-19T13:33:21.307Z,100508.00
2022-08-19T13:35:58.023Z,100503.13
2022-08-19T13:38:26.269Z,100498.91
2022-08-19T13:40:56.827Z,100509.06
2022-08-19T13:43:27.798Z,100509.97
2022-08-19T13:45:57.600Z,100504.69
2022-08-19T13:48:28.617Z,100503.13
2022-08-19T13:50:56.743Z,100504.03
2022-08-19T13:53:24.656Z,100499.25
2022-08-19T13:55:52.265Z,100499.31
2022-08-19T13:58:19.516Z,100504.97
2022-08-19T14:00:48.602Z,100504.13
2022-08-19T14:03:15.855Z,100495.97
2022-08-19T14:05:43.241Z,100496.69
2022-08-19T14:08:10.466Z,100493.25
2022-08-19T14:10:37.615Z,100499.00
2022-08-19T14:13:05.803Z,100498.69
2022-08-19T14:15:33.355Z,100497.09
2022-08-19T14:18:00.678Z,100495.78
2022-08-19T14:20:27.894Z,100496.13
2022-08-19T14:22:56.778Z,100495.69
2022-08-19T14:25:30.357Z,100486.94
2022-08-19T14:27:59.167Z,100488.34
2022-08-19T14:30:32.697Z,100488.69
2022-08-19T14:33:03.238Z,100495.13
2022-08-19T14:35:35.691Z,100492.72
2022-08-19T14:38:18.607Z,100485.06
2022-08-19T14:40:50.057Z,100496.13
2022-08-19T14:43:18.759Z,100487.97
2022-08-19T14:45:45.795Z,100490.41
2022-08-19T14:48:19.498Z,100491.16
2022-08-19T14:50:47.643Z,100499.53
2022-08-19T14:53:16.879Z,100499.34
2022-08-19T14:55:47.097Z,100508.34
2022-08-19T14:58:29.542Z,100511.91
2022-08-19T15:01:00.508Z,100518.16
2022-08-19T15:03:29.529Z,100523.38
2022-08-19T15:05:58.691Z,100524.72
2022-08-19T15:08:29.508Z,100533.31
2022-08-19T15:10:59.638Z,100538.66
2022-08-19T15:13:30.503Z,100534.69
2022-08-19T15:15:58.295Z,100540.03
2022-08-19T15:18:25.848Z,100543.28
2022-08-19T15:20:53.142Z,100546.97
2022-08-19T15:23:22.520Z,100551.44
2022-08-19T15:25:55.947Z,100552.72
2022-08-19T15:28:27.290Z,100559.63
2022-08-19T15:30:55.054Z,100563.28
2022-08-19T15:33:22.051Z,100563.28
2022-08-19T15:35:52.732Z,100558.44
2022-08-19T15:38:26.054Z,100552.78
2022-08-19T15:40:53.825Z,100546.38
2022-08-19T15:43:23.989Z,100534.28
2022-08-19T15:45:51.110Z,100532.19
2022-08-19T15:48:18.203Z,100539.88
2022-08-19T15:50:45.307Z,100541.47
2022-08-19T15:53:12.442Z,100543.06
2022-08-19T15:55:46.353Z,100543.91
2022-08-19T15:58:34.701Z,100543.06
2022-08-19T16:01:27.007Z,100539.84
2022-08-19T16:04:16.609Z,100540.69
2022-08-19T16:06:51.665Z,100530.97
2022-08-19T16:09:26.634Z,100520.50
2022-08-19T16:12:02.373Z,100531.00
2022-08-19T16:14:35.307Z,100531.00
2022-08-19T16:17:03.211Z,100533.47
2022-08-19T16:19:32.547Z,100539.56
2022-08-19T16:21:59.602Z,100541.13
2022-08-19T16:24:29.504Z,100539.56
2022-08-19T16:26:57.507Z,100539.91
2022-08-19T16:29:33.844Z,100553.69
2022-08-19T16:32:11.509Z,100546.41
2022-08-19T16:34:42.886Z,100552.03
2022-08-19T16:37:10.747Z,100545.56
2022-08-19T16:39:39.704Z,100554.88
2022-08-19T16:42:15.443Z,100543.59
2022-08-19T16:44:45.903Z,100545.59
2022-08-19T16:47:16.885Z,100543.22
2022-08-19T16:49:54.290Z,100552.06
2022-08-19T16:52:26.269Z,100550.06
2022-08-19T16:54:54.664Z,100549.66
2022-08-19T16:57:23.912Z,100554.06
2022-08-19T16:59:52.430Z,100554.50
2022-08-19T17:02:23.381Z,100554.50
2022-08-19T17:04:57.274Z,100560.13
2022-08-19T17:07:28.536Z,100553.28
2022-08-19T17:09:57.146Z,100555.72
2022-08-19T17:12:30.475Z,100553.28
2022-08-19T17:15:07.195Z,100547.25
2022-08-19T17:17:34.944Z,100560.94
2022-08-19T17:20:03.380Z,100568.59
2022-08-19T17:22:30.545Z,100569.41
2022-08-19T17:24:58.586Z,100560.50
2022-08-19T17:27:31.321Z,100562.91
2022-08-19T17:30:02.692Z,100562.09
2022-08-19T17:32:35.261Z,100562.09
2022-08-19T17:35:04.865Z,100570.13
2022-08-19T17:37:34.239Z,100575.78
2022-08-19T17:40:07.670Z,100579.41
2022-08-19T17:42:36.728Z,100575.00
2022-08-19T17:45:05.938Z,100570.53
2022-08-19T17:47:33.524Z,100570.13
2022-08-19T17:50:00.673Z,100575.78
2022-08-19T17:52:27.990Z,100585.03
2022-08-19T17:54:55.110Z,100584.63
2022-08-19T17:57:22.348Z,100590.28
2022-08-19T17:59:49.538Z,100593.50
2022-08-19T18:02:21.422Z,100593.09
2022-08-19T18:04:49.148Z,100599.13
2022-08-19T18:07:17.072Z,100606.38
2022-08-19T18:09:49.468Z,100601.53
2022-08-19T18:12:26.701Z,100605.13
2022-08-19T18:14:53.879Z,100600.69
2022-08-19T18:17:23.286Z,100587.81
2022-08-19T18:19:50.742Z,100580.94
2022-08-19T18:22:59.386Z,100593.81
2022-08-19T18:25:46.861Z,100598.59
2022-08-19T18:28:14.200Z,100599.47
2022-08-19T18:30:41.337Z,100600.25
2022-08-19T18:33:16.298Z,100604.25
2022-08-19T18:35:48.979Z,100613.09
2022-08-19T18:38:53.536Z,100615.88
2022-08-19T18:41:39.096Z,100616.69
2022-08-19T18:44:24.969Z,100620.69
2022-08-19T18:47:14.550Z,100624.34
2022-08-19T18:49:41.678Z,100624.34
2022-08-19T18:52:08.743Z,100623.91
2022-08-19T18:54:36.935Z,100624.31
2022-08-19T18:57:05.842Z,100629.91
2022-08-19T18:59:33.063Z,100626.69
2022-08-19T19:02:02.433Z,100639.97
2022-08-19T19:04:37.432Z,100643.97
2022-08-19T19:07:09.176Z,100648.38
2022-08-19T19:09:38.242Z,100656.47
2022-08-19T19:12:14.182Z,100665.28
2022-08-19T19:14:50.294Z,100675.34
2022-08-19T19:17:18.370Z,100681.38
2022-08-19T19:19:45.778Z,100675.72
2022-08-19T19:22:20.483Z,100672.50
2022-08-19T19:24:49.013Z,100668.47
2022-08-19T19:27:20.696Z,100666.84
2022-08-19T19:29:52.326Z,100668.47
2022-08-19T19:32:29.531Z,100673.28
2022-08-19T19:34:56.806Z,100679.31
2022-08-19T19:37:23.955Z,100680.53
2022-08-19T19:39:52.658Z,100695.44
2022-08-19T19:42:24.087Z,100696.63
2022-08-19T19:44:55.775Z,100695.03
2022-08-19T19:47:28.571Z,100693.00
2022-08-19T19:50:14.845Z,100683.75
2022-08-19T19:52:46.790Z,100686.56
2022-08-19T19:55:18.204Z,100694.59
2022-08-19T19:57:49.341Z,100693.00
2022-08-19T20:00:19.237Z,100692.22
2022-08-19T20:02:50.339Z,100683.75
2022-08-19T20:05:23.318Z,100682.09
2022-08-19T20:08:13.463Z,100691.69
2022-08-19T20:10:44.344Z,100685.69
2022-08-19T20:13:15.658Z,100694.94
2022-08-19T20:15:43.894Z,100701.34
2022-08-19T20:18:14.815Z,100701.78
2022-08-19T20:20:45.539Z,100696.59
2022-08-19T20:23:13.436Z,100692.94
2022-08-19T20:25:40.381Z,100686.16
2022-08-19T20:28:08.828Z,100678.94
2022-08-19T20:30:36.156Z,100674.47
2022-08-19T20:33:07.081Z,100672.84
2022-08-19T20:35:37.661Z,100672.50
2022-08-19T20:38:08.785Z,100676.03
2022-08-19T20:40:37.919Z,100680.84
2022-08-19T20:43:12.412Z,100674.00
2022-08-19T20:45:40.146Z,100673.94
2022-08-19T20:48:12.363Z,100673.16
2022-08-19T20:50:39.674Z,100665.09
2022-08-19T20:53:20.567Z,100659.06
2022-08-19T20:55:49.947Z,100659.50
2022-08-19T20:58:21.241Z,100654.28
2022-08-19T21:00:51.302Z,100654.69
2022-08-19T21:03:26.576Z,100654.66
2022-08-19T21:05:55.860Z,100661.13
2022-08-19T21:08:25.773Z,100668.31
2022-08-19T21:10:56.455Z,100671.13
2022-08-19T21:13:25.419Z,100671.09
2022-08-19T21:15:53.191Z,100663.06
2022-08-19T21:18:23.380Z,100662.28
2022-08-19T21:20:51.252Z,100682.00
2022-08-19T21:23:28.919Z,100691.28
2022-08-19T21:26:01.011Z,100691.63
2022-08-19T21:28:35.031Z,100692.84
2022-08-19T21:31:06.879Z,100706.53
2022-08-19T21:33:34.043Z,100696.06
2022-08-19T21:36:01.136Z,100700.09
2022-08-19T21:38:28.230Z,100692.84
2022-08-19T21:40:55.939Z,100683.56
2022-08-19T21:43:25.044Z,100684.00
2022-08-19T21:45:52.268Z,100696.03
2022-08-19T21:48:19.884Z,100699.59
2022-08-19T21:50:48.789Z,100704.06
2022-08-19T21:53:19.581Z,100698.78
2022-08-19T21:55:53.661Z,100697.59
2022-08-19T21:58:29.243Z,100698.38
2022-08-19T22:01:00.573Z,100693.53
2022-08-19T22:03:28.313Z,100694.72
2022-08-19T22:05:55.406Z,100697.16
2022-08-19T22:08:23.105Z,100684.69
2022-08-19T22:10:50.854Z,100686.69
2022-08-19T22:13:20.332Z,100681.81
2022-08-19T22:15:50.464Z,100670.56
2022-08-19T22:18:19.201Z,100673.38
2022-08-19T22:20:47.981Z,100674.22
2022-08-19T22:23:15.269Z,100668.16
2022-08-19T22:25:47.361Z,100679.84
2022-08-19T22:28:19.111Z,100679.00
2022-08-19T22:30:56.222Z,100683.03
2022-08-19T22:33:25.892Z,100680.56
2022-08-19T22:35:53.924Z,100682.16
2022-08-19T22:38:21.453Z,100678.13
2022-08-19T22:40:52.605Z,100671.25
2022-08-19T22:43:30.306Z,100672.06
2022-08-19T22:46:00.408Z,100664.00
2022-08-19T22:48:32.697Z,100658.38
2022-08-19T22:51:19.783Z,100663.19
2022-08-19T22:53:48.140Z,100666.38
2022-08-19T22:56:19.214Z,100673.22
2022-08-19T22:58:49.993Z,100660.34
2022-08-19T23:01:30.290Z,100679.63
2022-08-19T23:04:00.180Z,100686.38
2022-08-19T23:06:33.532Z,100686.41
2022-08-19T23:09:04.716Z,100684.41
2022-08-19T23:11:35.804Z,100671.13
2022-08-19T23:14:08.816Z,100669.09
2022-08-19T23:16:36.166Z,100665.53
2022-08-19T23:19:03.609Z,100672.34
2022-08-19T23:21:31.057Z,100677.56
2022-08-19T23:23:58.269Z,100683.19
2022-08-19T23:26:25.315Z,100683.56
2022-08-19T23:29:24.876Z,100687.22
2022-08-19T23:31:52.154Z,100687.59
2022-08-19T23:34:20.514Z,100678.75
2022-08-19T23:36:48.476Z,100675.94
2022-08-19T23:39:15.519Z,100673.94
2022-08-19T23:41:42.606Z,100653.44
2022-08-19T23:44:14.693Z,100638.56
2022-08-19T23:46:54.484Z,100636.97
2022-08-19T23:49:24.778Z,100642.59
2022-08-19T23:51:54.632Z,100644.19
2022-08-19T23:54:22.073Z,100649.41
2022-08-19T23:57:01.322Z,100655.03
2022-08-19T23:59:28.375Z,100658.66
